Time;durP1;ratioP1;P1;durP2;ratioP2;P2;SDS_P1;SDS_P2;PMS_P1;PMS_P2;Temp;Humidity;BMP_temperature;BMP_pressure;BME280_temperature;BME280_humidity;BME280_pressure;Samples;Min_cycle;Max_cycle;Signal;HPM_P1;HPM_P2
2022/06/04 00:00:53;;;;;;;5.75;2.88;;;13.00;99.90;;;;;;5024953;28;20037;-73
2022/06/04 00:03:19;;;;;;;3.97;2.75;;;13.00;99.90;;;;;;5024248;28;20387;-71
2022/06/04 00:05:49;;;;;;;3.72;2.03;;;13.00;99.90;;;;;;5024527;28;20030;-71
2022/06/04 00:08:16;;;;;;;12.48;2.90;;;13.00;99.90;;;;;;5007123;28;20030;-72
2022/06/04 00:16:15;;;;;;;5.25;2.60;;;13.00;99.90;;;;;;5024619;28;21056;-73
2022/06/04 00:18:41;;;;;;;4.25;2.20;;;13.10;99.90;;;;;;5024231;28;20026;-71
2022/06/04 00:21:08;;;;;;;7.50;2.08;;;13.00;99.90;;;;;;5024632;28;20034;-72
2022/06/04 00:23:34;;;;;;;7.20;2.95;;;12.90;99.90;;;;;;5006508;28;20014;-74
2022/06/04 00:26:03;;;;;;;4.47;2.70;;;12.80;99.90;;;;;;5024436;28;20017;-73
2022/06/04 00:28:29;;;;;;;6.20;2.95;;;12.90;99.90;;;;;;5023664;28;20113;-72
2022/06/04 00:30:57;;;;;;;14.10;3.60;;;12.90;99.90;;;;;;5024765;28;20113;-71
2022/06/04 00:33:24;;;;;;;8.50;3.33;;;12.90;99.90;;;;;;5024650;28;20140;-71
2022/06/04 00:35:52;;;;;;;4.50;2.53;;;12.80;99.90;;;;;;5023525;28;20122;-72
2022/06/04 00:38:21;;;;;;;4.93;2.72;;;12.80;99.90;;;;;;5023438;28;20025;-71
2022/06/04 00:41:00;;;;;;;5.57;2.80;;;12.60;99.90;;;;;;5024101;28;20053;-72
2022/06/04 00:43:26;;;;;;;6.43;3.83;;;12.70;99.90;;;;;;5023817;28;20022;-73
2022/06/04 00:46:34;;;;;;;10.15;3.47;;;12.60;99.90;;;;;;5024352;28;20029;-71
2022/06/04 00:48:59;;;;;;;7.47;3.42;;;12.60;99.90;;;;;;5006159;28;20045;-71
2022/06/04 00:51:26;;;;;;;8.95;3.10;;;12.60;99.90;;;;;;5024204;28;20057;-72
2022/06/04 00:53:56;;;;;;;11.10;3.80;;;12.50;99.90;;;;;;5023855;28;20034;-72
2022/06/04 00:56:40;;;;;;;3.90;2.50;;;12.50;99.90;;;;;;5005639;28;20021;-72
2022/06/04 00:59:21;;;;;;;7.53;3.22;;;12.50;99.90;;;;;;5005043;28;20212;-72
2022/06/04 01:01:49;;;;;;;9.27;4.10;;;12.50;99.90;;;;;;5023683;28;20037;-71
2022/06/04 01:04:47;;;;;;;5.47;2.70;;;12.50;99.90;;;;;;5023300;28;20018;-71
2022/06/04 01:07:36;;;;;;;4.78;3.00;;;12.40;99.90;;;;;;5015586;28;20030;-72
2022/06/04 01:10:17;;;;;;;6.40;3.42;;;12.40;99.90;;;;;;5023564;28;20493;-72
2022/06/04 01:13:15;;;;;;;7.95;3.30;;;12.30;99.90;;;;;;5022606;28;20022;-74
2022/06/04 01:16:11;;;;;;;9.57;3.80;;;12.30;99.90;;;;;;5022422;28;20499;-75
2022/06/04 01:18:56;;;;;;;12.10;4.05;;;12.30;99.90;;;;;;5005187;28;20032;-72
2022/06/04 01:21:29;;;;;;;8.15;3.70;;;12.20;99.90;;;;;;5005409;28;20073;-72
2022/06/04 01:24:01;;;;;;;8.35;3.35;;;12.10;99.90;;;;;;5005364;28;20026;-73
2022/06/04 01:27:07;;;;;;;6.60;3.58;;;12.10;99.90;;;;;;5023367;28;20033;-75
2022/06/04 01:29:49;;;;;;;8.52;3.95;;;12.10;99.90;;;;;;5013775;28;20630;-73
2022/06/04 01:32:22;;;;;;;9.80;4.20;;;12.10;99.90;;;;;;5023114;28;20064;-73
2022/06/04 01:34:56;;;;;;;5.82;3.33;;;12.00;99.90;;;;;;5023147;28;21054;-72
2022/06/04 01:37:42;;;;;;;6.43;3.85;;;12.00;99.90;;;;;;5005657;28;20032;-71
2022/06/04 01:42:59;;;;;;;5.55;3.42;;;12.00;99.90;;;;;;5023382;28;20037;-73
2022/06/04 01:45:27;;;;;;;9.52;4.13;;;11.90;99.90;;;;;;5005361;28;20041;-74
2022/06/04 01:47:57;;;;;;;9.18;3.95;;;11.90;99.90;;;;;;5022702;28;20026;-72
2022/06/04 01:50:27;;;;;;;9.18;4.13;;;11.90;99.90;;;;;;5023095;28;20044;-71
2022/06/04 01:52:54;;;;;;;17.58;4.47;;;12.00;99.90;;;;;;5022481;28;20100;-74
2022/06/04 01:55:28;;;;;;;8.93;3.92;;;11.90;99.90;;;;;;5022495;28;20045;-72
2022/06/04 01:58:05;;;;;;;11.57;4.50;;;11.90;99.90;;;;;;5005118;28;20030;-72
2022/06/04 02:00:41;;;;;;;10.20;4.65;;;11.80;99.90;;;;;;5022660;28;20061;-72
2022/06/04 02:03:15;;;;;;;11.07;4.28;;;11.80;99.90;;;;;;5022503;28;20109;-73
2022/06/04 02:05:49;;;;;;;14.07;4.47;;;11.80;99.90;;;;;;5022456;28;20029;-72
2022/06/04 02:08:24;;;;;;;12.00;4.43;;;11.70;99.90;;;;;;5022207;28;20025;-73
2022/06/04 02:10:58;;;;;;;9.20;4.20;;;11.70;99.90;;;;;;5021489;28;20041;-72
2022/06/04 02:13:25;;;;;;;10.30;4.60;;;11.70;99.90;;;;;;5022563;28;20026;-72
2022/06/04 02:16:08;;;;;;;7.75;3.95;;;11.70;99.90;;;;;;5003789;28;20080;-71
2022/06/04 02:18:35;;;;;;;10.25;4.05;;;11.70;99.90;;;;;;5022534;28;20041;-71
2022/06/04 02:21:01;;;;;;;13.32;4.38;;;11.60;99.90;;;;;;5022258;28;20029;-73
2022/06/04 02:23:29;;;;;;;15.63;4.40;;;11.70;99.90;;;;;;5022455;28;20425;-72
2022/06/04 02:25:58;;;;;;;8.88;4.80;;;11.60;99.90;;;;;;5022154;28;20018;-74
2022/06/04 02:28:24;;;;;;;12.98;4.30;;;11.60;99.90;;;;;;5022054;28;20026;-72
2022/06/04 02:31:12;;;;;;;9.77;4.88;;;11.50;99.90;;;;;;5022007;28;20049;-73
2022/06/04 02:33:52;;;;;;;9.40;4.22;;;11.50;99.90;;;;;;5021704;28;20136;-72
2022/06/04 02:36:37;;;;;;;8.82;4.43;;;11.50;99.90;;;;;;5022225;28;20048;-71
2022/06/04 02:39:19;;;;;;;11.18;4.63;;;11.40;99.90;;;;;;5021453;28;20056;-72
2022/06/04 02:42:11;;;;;;;11.95;4.70;;;11.40;99.90;;;;;;5021869;28;20029;-73
2022/06/04 02:45:04;;;;;;;7.75;4.40;;;11.40;99.90;;;;;;5018812;28;20045;-70
2022/06/04 02:47:48;;;;;;;7.78;3.63;;;11.40;99.90;;;;;;5016026;28;20037;-72
2022/06/04 02:50:34;;;;;;;8.75;3.83;;;11.40;99.90;;;;;;5021733;28;20022;-72
2022/06/04 02:53:03;;;;;;;13.35;4.53;;;11.30;99.90;;;;;;5020599;28;20045;-73
2022/06/04 02:55:37;;;;;;;11.18;4.35;;;11.20;99.90;;;;;;5004133;28;20030;-72
2022/06/04 02:58:07;;;;;;;;;;;11.20;99.90;;;;;;5022458;28;20022;-71
2022/06/04 03:00:33;;;;;;;9.77;4.80;;;11.20;99.90;;;;;;5021065;28;19928;-73
2022/06/04 03:02:58;;;;;;;7.05;4.20;;;11.20;99.90;;;;;;5021848;28;20033;-72
2022/06/04 03:05:28;;;;;;;22.40;5.68;;;11.20;99.90;;;;;;5021917;28;20029;-72
2022/06/04 03:07:58;;;;;;;13.32;4.50;;;11.20;99.90;;;;;;5021816;28;20080;-73
2022/06/04 03:10:34;;;;;;;6.57;3.97;;;11.20;99.90;;;;;;5021734;28;20017;-72
2022/06/04 03:13:01;;;;;;;8.57;4.30;;;11.20;99.90;;;;;;5021885;28;20037;-72
2022/06/04 03:15:28;;;;;;;9.57;4.63;;;11.20;99.90;;;;;;5021556;28;20058;-73
2022/06/04 03:17:53;;;;;;;18.30;5.03;;;11.20;99.90;;;;;;5021053;28;20041;-72
2022/06/04 03:20:25;;;;;;;8.07;4.18;;;11.20;99.90;;;;;;5020960;28;20037;-73
2022/06/04 03:22:51;;;;;;;11.10;4.18;;;11.20;99.90;;;;;;5021464;28;20116;-73
2022/06/04 03:25:19;;;;;;;13.32;4.75;;;11.10;99.90;;;;;;5020994;28;20048;-73
2022/06/04 03:27:45;;;;;;;12.45;4.13;;;11.10;99.90;;;;;;5024077;28;20607;-72
2022/06/04 03:30:11;;;;;;;9.95;4.40;;;11.00;99.90;;;;;;5024367;28;20032;-73
2022/06/04 03:32:37;;;;;;;15.38;4.43;;;11.00;99.90;;;;;;5007529;28;20022;-73
2022/06/04 03:35:03;;;;;;;9.73;4.25;;;11.00;99.90;;;;;;5025302;28;20046;-72
2022/06/04 03:37:29;;;;;;;10.93;5.38;;;11.00;99.90;;;;;;5025478;28;20030;-74
2022/06/04 03:39:55;;;;;;;16.65;5.20;;;11.00;99.90;;;;;;5025286;28;20053;-72
2022/06/04 03:42:21;;;;;;;9.57;5.03;;;10.90;99.90;;;;;;5023263;28;20034;-72
2022/06/04 03:44:48;;;;;;;9.45;5.15;;;10.90;99.90;;;;;;5025012;28;20036;-70
2022/06/04 03:47:18;;;;;;;12.18;4.95;;;10.80;99.90;;;;;;5024981;28;20026;-71
2022/06/04 03:49:44;;;;;;;10.32;4.65;;;10.80;99.90;;;;;;5024710;28;20026;-72
2022/06/04 03:52:11;;;;;;;10.25;3.97;;;10.90;99.90;;;;;;5024992;28;20029;-71
2022/06/04 03:54:53;;;;;;;7.95;4.10;;;10.90;99.90;;;;;;5025272;28;20040;-73
2022/06/04 03:57:38;;;;;;;10.32;4.32;;;10.90;99.90;;;;;;5025200;28;20030;-72
2022/06/04 04:00:06;;;;;;;10.63;4.20;;;11.00;99.90;;;;;;5025014;28;20544;-72
2022/06/04 04:02:33;;;;;;;9.27;4.03;;;11.00;99.90;;;;;;5024737;28;20021;-72
2022/06/04 04:04:59;;;;;;;8.02;4.72;;;11.10;99.90;;;;;;5025317;28;20026;-72
2022/06/04 04:07:26;;;;;;;8.55;3.65;;;11.10;99.90;;;;;;5024755;28;20030;-72
2022/06/04 04:09:52;;;;;;;14.23;4.63;;;11.20;99.90;;;;;;5022932;28;20025;-73
2022/06/04 04:12:17;;;;;;;13.48;4.82;;;11.10;99.90;;;;;;5023779;28;20061;-73
2022/06/04 04:14:43;;;;;;;10.43;3.90;;;11.20;99.90;;;;;;5023219;28;20018;-72
2022/06/04 04:17:09;;;;;;;8.57;3.95;;;11.20;99.90;;;;;;5023947;28;20041;-72
2022/06/04 04:19:35;;;;;;;6.60;3.72;;;11.20;99.90;;;;;;5006573;28;20026;-73
2022/06/04 04:22:01;;;;;;;7.15;3.65;;;11.10;99.90;;;;;;5024684;28;20085;-71
2022/06/04 04:24:29;;;;;;;7.00;3.63;;;11.10;99.90;;;;;;5022810;28;20026;-75
2022/06/04 04:26:55;;;;;;;11.00;4.13;;;11.00;99.90;;;;;;5023153;28;20033;-72
2022/06/04 04:29:20;;;;;;;10.15;4.85;;;11.10;99.90;;;;;;5023242;28;20109;-72
2022/06/04 04:31:46;;;;;;;6.72;3.42;;;11.10;99.90;;;;;;5005521;28;20026;-72
2022/06/04 04:34:14;;;;;;;14.02;3.90;;;11.20;99.90;;;;;;5020033;28;20038;-74
2022/06/04 04:36:40;;;;;;;7.13;4.10;;;11.20;99.90;;;;;;5021609;28;20026;-73
2022/06/04 04:39:06;;;;;;;14.13;3.85;;;11.20;99.90;;;;;;5001300;28;20503;-73
2022/06/04 04:41:31;;;;;;;8.30;3.53;;;11.20;99.90;;;;;;5018672;28;20041;-75
2022/06/04 04:43:57;;;;;;;9.80;4.00;;;11.20;99.90;;;;;;5022262;28;20030;-72
2022/06/04 04:46:22;;;;;;;6.97;3.60;;;11.20;99.90;;;;;;5022721;28;20038;-74
2022/06/04 04:48:49;;;;;;;10.77;4.03;;;11.20;99.90;;;;;;5020496;28;20034;-76
2022/06/04 04:51:22;;;;;;;8.57;4.13;;;11.20;99.90;;;;;;5012301;28;20434;-70
2022/06/04 04:53:48;;;;;;;9.52;3.00;;;11.20;99.90;;;;;;5023395;28;20018;-72
2022/06/04 04:56:17;;;;;;;10.15;4.40;;;11.30;99.90;;;;;;5023318;28;20018;-71
2022/06/04 04:58:43;;;;;;;7.07;3.53;;;11.30;99.90;;;;;;5021540;28;20608;-73
2022/06/04 05:01:24;;;;;;;9.15;3.20;;;11.30;99.90;;;;;;5023005;28;20037;-73
2022/06/04 05:03:51;;;;;;;13.27;4.68;;;11.40;99.90;;;;;;5022705;28;20038;-75
2022/06/04 05:06:18;;;;;;;6.72;3.80;;;11.40;99.90;;;;;;5022719;28;20075;-73
2022/06/04 05:08:45;;;;;;;10.55;4.20;;;11.40;99.90;;;;;;5023270;28;20037;-75
2022/06/04 05:11:17;;;;;;;9.73;3.85;;;11.40;99.90;;;;;;5022894;28;20686;-75
2022/06/04 05:13:43;;;;;;;8.13;3.72;;;11.40;99.90;;;;;;5005707;28;20022;-73
2022/06/04 05:16:09;;;;;;;8.07;3.88;;;11.50;99.90;;;;;;5020503;28;20105;-74
2022/06/04 05:18:35;;;;;;;8.65;3.08;;;11.50;99.90;;;;;;5002230;28;20065;-75
2022/06/04 05:21:17;;;;;;;7.68;4.13;;;11.50;99.90;;;;;;5022622;28;20085;-74
2022/06/04 05:23:43;;;;;;;6.18;3.35;;;11.60;99.90;;;;;;5021845;28;20037;-74
2022/06/04 05:26:09;;;;;;;13.07;4.32;;;11.60;99.90;;;;;;5004226;28;20026;-73
2022/06/04 05:28:35;;;;;;;8.25;3.58;;;11.70;99.90;;;;;;5023298;28;20042;-72
2022/06/04 05:31:02;;;;;;;7.35;4.07;;;11.80;99.90;;;;;;5022709;28;20409;-76
2022/06/04 05:33:28;;;;;;;9.02;3.67;;;11.80;99.90;;;;;;5021072;28;20045;-75
2022/06/04 05:35:53;;;;;;;6.28;3.72;;;11.90;99.90;;;;;;5023427;28;20030;-74
2022/06/04 05:38:19;;;;;;;7.65;3.45;;;11.90;99.90;;;;;;5021985;28;20038;-74
2022/06/04 05:40:45;;;;;;;8.90;3.72;;;12.00;99.90;;;;;;5022429;28;20048;-74
2022/06/04 05:43:10;;;;;;;11.07;4.00;;;12.10;99.90;;;;;;5020747;28;20081;-73
2022/06/04 05:45:36;;;;;;;10.43;3.60;;;12.10;99.90;;;;;;5004641;28;20045;-73
2022/06/04 05:48:02;;;;;;;13.13;3.92;;;12.10;99.90;;;;;;5022296;28;20018;-76
2022/06/04 05:50:28;;;;;;;7.05;3.90;;;12.10;99.90;;;;;;5020934;28;20077;-74
2022/06/04 05:52:53;;;;;;;14.23;4.80;;;12.10;99.90;;;;;;5020202;28;20037;-74
2022/06/04 05:55:19;;;;;;;6.13;3.47;;;12.20;99.90;;;;;;5022297;28;20041;-74
2022/06/04 05:57:44;;;;;;;9.75;4.18;;;12.20;99.90;;;;;;5020424;28;20105;-72
2022/06/04 06:00:11;;;;;;;11.95;3.60;;;12.30;99.90;;;;;;5021120;28;20046;-73
2022/06/04 06:02:37;;;;;;;13.90;4.25;;;12.30;99.90;;;;;;5005069;28;20022;-75
2022/06/04 06:05:04;;;;;;;9.32;4.35;;;12.30;99.90;;;;;;5022649;28;20022;-76
2022/06/04 06:07:30;;;;;;;10.93;4.93;;;12.30;99.90;;;;;;5020749;28;20083;-74
2022/06/04 06:09:57;;;;;;;7.30;4.22;;;12.40;99.90;;;;;;5021613;28;20038;-75
2022/06/04 06:12:23;;;;;;;8.07;4.30;;;12.40;99.90;;;;;;5022368;28;20046;-74
2022/06/04 06:14:49;;;;;;;6.78;2.63;;;12.50;99.90;;;;;;5021433;28;20072;-74
2022/06/04 06:17:15;;;;;;;8.80;3.65;;;12.50;99.90;;;;;;5021943;28;20120;-75
2022/06/04 06:19:40;;;;;;;9.20;3.65;;;12.60;99.90;;;;;;5021721;28;20467;-77
2022/06/04 06:22:07;;;;;;;8.55;4.28;;;12.70;99.90;;;;;;5022164;28;20029;-75
2022/06/04 06:24:33;;;;;;;7.00;3.25;;;12.70;99.90;;;;;;5022069;28;20014;-72
2022/06/04 06:26:59;;;;;;;11.65;4.82;;;12.80;99.90;;;;;;5021071;28;20037;-75
2022/06/04 06:29:28;;;;;;;8.85;3.75;;;12.80;99.90;;;;;;5021649;28;20037;-75
2022/06/04 06:31:55;;;;;;;7.47;3.92;;;12.90;99.90;;;;;;5004402;28;20044;-73
2022/06/04 06:34:21;;;;;;;12.52;4.65;;;12.90;99.90;;;;;;5003291;28;20061;-77
2022/06/04 06:36:50;;;;;;;6.25;3.70;;;12.90;99.90;;;;;;5003548;28;20061;-75
2022/06/04 06:39:23;;;;;;;7.10;4.00;;;13.00;99.90;;;;;;5021403;28;20045;-73
2022/06/04 06:41:49;;;;;;;7.75;3.95;;;13.00;99.90;;;;;;5004230;28;20053;-74
2022/06/04 06:44:18;;;;;;;9.57;4.85;;;13.10;99.90;;;;;;5021335;28;20017;-72
2022/06/04 06:46:46;;;;;;;7.75;4.35;;;13.10;99.90;;;;;;5021834;28;20478;-76
2022/06/04 06:49:22;;;;;;;6.80;3.95;;;13.10;99.90;;;;;;5000828;28;20021;-73
2022/06/04 06:51:56;;;;;;;7.88;4.05;;;13.10;99.90;;;;;;5021229;28;20038;-74
2022/06/04 06:54:25;;;;;;;11.35;4.28;;;13.20;99.90;;;;;;5018828;28;20018;-76
2022/06/04 06:56:52;;;;;;;9.85;4.60;;;13.20;99.90;;;;;;5021208;28;20030;-75
2022/06/04 06:59:24;;;;;;;8.90;4.50;;;13.30;99.90;;;;;;5000302;28;20036;-75
2022/06/04 07:01:51;;;;;;;13.30;5.05;;;13.40;99.90;;;;;;5022177;28;20042;-74
2022/06/04 07:04:21;;;;;;;8.60;4.78;;;13.50;99.90;;;;;;5022656;28;20660;-73
2022/06/04 07:06:53;;;;;;;7.72;4.35;;;13.60;99.90;;;;;;5025373;28;20041;-75
2022/06/04 07:09:19;;;;;;;8.32;4.38;;;13.60;99.90;;;;;;5006851;28;20026;-74
2022/06/04 07:11:46;;;;;;;10.65;4.45;;;13.60;99.90;;;;;;5023338;28;20022;-76
2022/06/04 07:14:19;;;;;;;12.82;5.07;;;13.60;99.90;;;;;;5006715;28;20030;-75
2022/06/04 07:16:45;;;;;;;13.17;4.20;;;13.70;99.90;;;;;;5023713;28;20042;-75
2022/06/04 07:19:14;;;;;;;7.55;4.25;;;13.70;99.90;;;;;;5005095;28;20306;-74
2022/06/04 07:21:40;;;;;;;9.70;4.88;;;13.80;99.90;;;;;;5019243;28;20038;-75
2022/06/04 07:24:06;;;;;;;8.88;3.83;;;13.80;99.90;;;;;;5006800;28;20030;-76
2022/06/04 07:26:34;;;;;;;13.43;5.45;;;13.90;99.90;;;;;;5022951;28;20093;-73
2022/06/04 07:29:00;;;;;;;8.15;4.22;;;14.00;99.90;;;;;;5023524;28;20037;-75
2022/06/04 07:31:29;;;;;;;12.45;4.88;;;14.00;99.90;;;;;;5023676;28;20049;-73
2022/06/04 07:33:56;;;;;;;7.68;4.65;;;14.10;99.90;;;;;;5024174;28;20018;-74
2022/06/04 07:36:25;;;;;;;8.02;4.65;;;14.20;99.90;;;;;;5024871;28;20049;-75
2022/06/04 07:38:51;;;;;;;18.33;4.93;;;14.20;99.90;;;;;;5024975;28;21133;-73
2022/06/04 07:41:21;;;;;;;8.98;4.05;;;14.40;99.90;;;;;;5024439;28;20042;-74
2022/06/04 07:43:48;;;;;;;7.97;4.28;;;14.50;99.90;;;;;;5024844;28;20708;-74
2022/06/04 07:46:14;;;;;;;6.00;3.50;;;14.60;99.90;;;;;;5025197;28;20076;-76
2022/06/04 07:48:40;;;;;;;6.43;3.45;;;14.50;99.90;;;;;;5006906;28;20026;-74
2022/06/04 07:51:06;;;;;;;10.15;5.00;;;14.70;99.90;;;;;;5005312;28;20040;-74
2022/06/04 07:53:32;;;;;;;6.50;3.55;;;14.70;99.90;;;;;;5024138;28;20041;-75
2022/06/04 07:55:58;;;;;;;9.30;4.30;;;14.70;99.90;;;;;;5023881;28;20030;-71
2022/06/04 07:58:24;;;;;;;6.63;3.53;;;14.80;99.90;;;;;;5024355;28;20764;-74
2022/06/04 08:01:01;;;;;;;7.47;4.20;;;14.90;99.90;;;;;;5022154;28;20042;-72
2022/06/04 08:03:33;;;;;;;6.68;3.20;;;15.00;99.90;;;;;;5022852;28;20029;-73
2022/06/04 08:06:03;;;;;;;8.43;4.50;;;15.10;99.90;;;;;;5006606;28;20030;-74
2022/06/04 08:08:34;;;;;;;7.30;3.83;;;15.20;99.90;;;;;;5005310;28;20042;-76
2022/06/04 08:11:30;;;;;;;6.78;3.70;;;15.30;99.90;;;;;;5023081;28;20018;-74
2022/06/04 08:13:49;;;;;;;6.18;3.72;;;15.40;99.90;;;;;;5022245;28;20565;-75
2022/06/04 08:16:15;;;;;;;5.65;3.40;;;15.50;99.90;;;;;;5002476;28;20054;-74
2022/06/04 08:18:41;;;;;;;7.18;3.60;;;15.60;99.90;;;;;;5002705;28;20093;-76
2022/06/04 08:21:10;;;;;;;8.32;4.07;;;15.70;99.90;;;;;;5003983;28;20046;-75
2022/06/04 08:23:39;;;;;;;8.10;3.85;;;15.90;99.90;;;;;;5003034;28;20037;-75
2022/06/04 08:26:08;;;;;;;3.92;2.53;;;16.00;99.90;;;;;;5002725;28;20044;-75
2022/06/04 08:28:35;;;;;;;6.03;2.75;;;16.10;99.90;;;;;;5002817;28;20022;-76
2022/06/04 08:31:10;;;;;;;8.73;3.35;;;16.20;99.90;;;;;;5003411;28;20026;-73
2022/06/04 08:33:36;;;;;;;7.18;3.63;;;16.30;99.90;;;;;;5004268;28;21065;-75
2022/06/04 08:36:04;;;;;;;6.00;3.17;;;16.40;99.90;;;;;;5003025;28;20041;-76
2022/06/04 08:38:32;;;;;;;6.75;3.20;;;16.50;99.90;;;;;;5002044;28;20034;-74
2022/06/04 08:41:04;;;;;;;8.70;3.72;;;16.60;99.90;;;;;;5003064;28;20038;-75
2022/06/04 08:43:45;;;;;;;6.40;3.08;;;16.70;99.90;;;;;;5003134;28;20089;-74
2022/06/04 08:46:24;;;;;;;4.88;2.72;;;16.70;99.90;;;;;;5001800;28;20038;-77
2022/06/04 08:48:57;;;;;;;5.35;2.58;;;16.90;99.90;;;;;;5003130;28;20030;-76
2022/06/04 08:51:28;;;;;;;4.68;2.88;;;17.00;99.90;;;;;;5004633;28;20026;-74
2022/06/04 08:53:58;;;;;;;6.80;2.75;;;17.10;99.90;;;;;;5004295;28;20065;-73
2022/06/04 08:59:32;;;;;;;7.03;3.50;;;17.30;99.90;;;;;;5004418;28;20395;-75
2022/06/04 09:02:03;;;;;;;5.10;2.78;;;17.30;99.90;;;;;;5001811;28;20037;-76
2022/06/04 09:04:59;;;;;;;8.48;2.83;;;17.50;99.90;;;;;;5003748;28;20023;-73
2022/06/04 09:07:44;;;;;;;5.80;2.80;;;17.70;99.90;;;;;;5000828;28;20037;-74
2022/06/04 09:10:32;;;;;;;;;;;17.80;99.90;;;;;;5002153;28;20030;-72
2022/06/04 09:13:16;;;;;;;7.78;2.65;;;17.90;99.90;;;;;;5002728;28;19906;-76
2022/06/04 09:15:48;;;;;;;5.43;2.60;;;18.00;99.90;;;;;;5010564;28;20131;-71
2022/06/04 09:18:35;;;;;;;8.48;2.70;;;18.10;99.90;;;;;;5021595;28;20423;-73
2022/06/04 09:21:03;;;;;;;6.78;2.65;;;18.20;99.90;;;;;;5022767;28;20038;-73
2022/06/04 09:23:35;;;;;;;3.58;1.92;;;18.30;99.90;;;;;;5022498;28;20029;-74
2022/06/04 09:26:24;;;;;;;4.88;2.80;;;18.40;99.90;;;;;;5022295;28;20030;-74
2022/06/04 09:29:13;;;;;;;3.67;2.28;;;18.50;99.90;;;;;;5023454;28;20022;-72
2022/06/04 09:31:47;;;;;;;3.97;1.98;;;18.60;99.90;;;;;;5022977;28;20025;-74
2022/06/04 09:34:14;;;;;;;;;;;18.70;99.90;;;;;;5024065;28;20033;-74
2022/06/04 09:36:45;;;;;;;6.93;2.55;;;18.70;99.90;;;;;;5023809;28;19913;-74
2022/06/04 09:39:31;;;;;;;5.13;2.80;;;18.60;99.90;;;;;;5004950;28;20049;-74
2022/06/04 09:42:11;;;;;;;8.85;2.63;;;18.60;99.90;;;;;;5022718;28;20040;-74
2022/06/04 09:44:48;;;;;;;3.22;1.88;;;18.70;99.90;;;;;;5023383;28;20045;-74
2022/06/04 09:47:26;;;;;;;8.60;2.47;;;18.70;99.90;;;;;;5005442;28;20033;-73
2022/06/04 09:50:03;;;;;;;5.13;2.53;;;18.90;99.90;;;;;;5022086;28;20061;-74
2022/06/04 09:52:43;;;;;;;4.10;2.00;;;18.90;99.90;;;;;;5021865;28;20025;-74
2022/06/04 09:55:21;;;;;;;6.80;2.15;;;18.90;99.90;;;;;;5022622;28;20040;-76
2022/06/04 09:58:01;;;;;;;6.85;2.40;;;18.90;99.90;;;;;;5022849;28;20533;-73
2022/06/04 10:00:35;;;;;;;5.90;2.33;;;18.80;99.90;;;;;;5022155;28;20033;-72
2022/06/04 10:03:13;;;;;;;5.65;2.42;;;18.80;99.90;;;;;;5022938;28;20064;-75
2022/06/04 10:05:59;;;;;;;4.50;2.72;;;18.90;99.90;;;;;;5022574;28;20018;-73
2022/06/04 10:08:26;;;;;;;7.20;2.60;;;18.90;99.90;;;;;;5022891;28;20073;-75
2022/06/04 10:11:05;;;;;;;4.30;2.47;;;19.10;99.90;;;;;;5022586;28;20034;-75
2022/06/04 10:13:42;;;;;;;5.43;2.25;;;19.10;99.90;;;;;;5022592;28;20026;-75
2022/06/04 10:16:47;;;;;;;5.93;2.63;;;19.20;99.90;;;;;;5004841;28;20050;-73
2022/06/04 10:19:17;;;;;;;7.53;2.80;;;19.20;99.90;;;;;;5022869;28;20069;-73
2022/06/04 10:21:45;;;;;;;2.67;1.83;;;19.30;99.90;;;;;;5022304;28;20037;-75
2022/06/04 10:24:31;;;;;;;4.82;1.77;;;19.50;99.90;;;;;;5022840;28;21494;-75
2022/06/04 10:27:32;;;;;;;4.13;2.17;;;19.60;99.90;;;;;;5005122;28;20097;-72
2022/06/04 10:30:13;;;;;;;3.90;2.13;;;19.80;99.90;;;;;;4968837;28;20062;-73
2022/06/04 10:32:51;;;;;;;4.25;2.10;;;20.00;99.90;;;;;;5022681;28;20044;-74
2022/06/04 10:35:35;;;;;;;3.15;1.92;;;20.20;99.90;;;;;;5021937;28;20060;-73
2022/06/04 10:38:11;;;;;;;5.45;2.08;;;20.30;99.90;;;;;;5021834;28;20057;-74
2022/06/04 10:40:40;;;;;;;4.05;1.45;;;20.40;99.90;;;;;;5022181;28;20053;-72
2022/06/04 10:43:30;;;;;;;4.05;2.17;;;20.40;99.90;;;;;;5022064;28;20048;-73
2022/06/04 10:46:16;;;;;;;3.78;1.95;;;20.40;99.90;;;;;;5004290;28;20088;-74
2022/06/04 10:49:14;;;;;;;4.40;2.25;;;20.40;99.90;;;;;;5021343;28;20025;-74
2022/06/04 10:52:22;;;;;;;7.05;1.90;;;20.50;99.90;;;;;;5003352;28;20041;-73
2022/06/04 10:55:10;;;;;;;2.92;2.00;;;20.60;99.90;;;;;;5021501;28;20041;-72
2022/06/04 10:58:01;;;;;;;5.30;1.83;;;20.70;99.90;;;;;;5022500;28;20034;-73
2022/06/04 11:00:35;;;;;;;3.00;1.67;;;20.80;99.90;;;;;;5021916;28;20037;-75
2022/06/04 11:03:04;;;;;;;6.80;2.40;;;20.80;99.90;;;;;;5022219;28;20068;-76
2022/06/04 11:05:43;;;;;;;4.20;2.00;;;21.00;99.90;;;;;;5022023;28;20028;-76
2022/06/04 11:08:18;;;;;;;3.13;1.50;;;21.10;99.90;;;;;;5004516;28;20018;-75
2022/06/04 11:10:52;;;;;;;9.15;2.15;;;21.20;99.90;;;;;;5021445;28;20033;-75
2022/06/04 11:13:26;;;;;;;6.50;1.52;;;21.40;99.90;;;;;;5021915;28;20034;-73
2022/06/04 11:16:04;;;;;;;4.32;1.40;;;21.50;99.90;;;;;;5022168;28;20060;-73
2022/06/04 11:18:40;;;;;;;2.33;1.27;;;21.60;99.90;;;;;;5021445;28;20022;-75
2022/06/04 11:21:20;;;;;;;3.70;2.03;;;21.80;99.90;;;;;;5021990;28;20486;-70
2022/06/04 11:24:24;;;;;;;2.58;1.58;;;22.00;99.90;;;;;;5004067;28;20089;-71
2022/06/04 11:27:00;;;;;;;2.70;1.17;;;22.20;99.90;;;;;;5022245;28;20056;-71
2022/06/04 11:29:26;;;;;;;4.35;1.35;;;22.40;99.90;;;;;;5004660;28;20022;-71
2022/06/04 11:32:16;;;;;;;2.40;1.70;;;22.60;99.90;;;;;;5021656;28;20022;-73
2022/06/04 11:35:17;;;;;;;2.55;1.23;;;22.70;99.90;;;;;;5022279;28;20033;-73
2022/06/04 11:38:11;;;;;;;3.30;1.60;;;22.80;99.90;;;;;;5004675;28;20113;-75
2022/06/04 11:41:04;;;;;;;2.88;1.20;;;22.90;99.90;;;;;;5003814;28;20055;-72
2022/06/04 11:43:41;;;;;;;2.10;1.27;;;22.80;99.90;;;;;;5020936;28;20034;-70
2022/06/04 11:46:23;;;;;;;4.30;1.40;;;22.70;99.90;;;;;;5021579;28;20030;-71
2022/06/04 11:49:07;;;;;;;4.32;1.85;;;22.80;99.90;;;;;;5024008;28;20080;-70
2022/06/04 11:51:50;;;;;;;2.42;1.40;;;22.80;99.90;;;;;;5023523;28;20034;-72
2022/06/04 11:54:33;;;;;;;4.25;1.52;;;22.90;99.90;;;;;;5024195;28;20036;-75
2022/06/04 11:57:22;;;;;;;2.45;1.60;;;23.00;99.90;;;;;;5019523;28;20059;-74
2022/06/04 11:59:53;;;;;;;3.22;1.17;;;22.90;99.90;;;;;;5023512;28;20048;-70
2022/06/04 12:02:21;;;;;;;2.58;1.40;;;22.90;99.90;;;;;;5024696;28;20085;-71
2022/06/04 12:05:17;;;;;;;2.10;1.27;;;22.90;99.90;;;;;;5023374;28;20053;-73
2022/06/04 12:07:46;;;;;;;2.70;1.45;;;23.00;99.90;;;;;;5024383;28;20042;-72
2022/06/04 12:10:44;;;;;;;3.03;1.45;;;23.20;99.90;;;;;;5024293;28;20032;-71
2022/06/04 12:13:29;;;;;;;1.77;1.25;;;23.40;99.90;;;;;;4979500;28;20087;-73
2022/06/04 12:15:59;;;;;;;3.50;1.65;;;23.40;99.90;;;;;;5024902;28;20072;-73
2022/06/04 12:18:45;;;;;;;3.88;1.60;;;23.40;99.90;;;;;;5025387;28;20048;-73
2022/06/04 12:24:40;;;;;;;3.45;1.33;;;23.70;99.90;;;;;;5024691;28;20145;-73
2022/06/04 12:27:22;;;;;;;3.85;1.38;;;23.90;99.90;;;;;;5007421;28;20034;-76
2022/06/04 12:29:51;;;;;;;4.45;1.52;;;23.80;99.90;;;;;;5020226;28;20871;-73
2022/06/04 12:32:30;;;;;;;6.82;1.70;;;23.80;99.90;;;;;;5024008;28;20030;-72
2022/06/04 12:35:04;;;;;;;5.25;1.63;;;24.00;99.90;;;;;;5021889;28;20568;-75
2022/06/04 12:37:31;;;;;;;;;;;24.10;99.90;;;;;;5024503;28;20026;-76
2022/06/04 12:40:13;;;;;;;3.72;1.45;;;24.30;99.90;;;;;;5005558;28;20037;-72
2022/06/04 12:42:39;;;;;;;4.38;1.10;;;24.40;99.90;;;;;;5024456;28;20026;-73
2022/06/04 12:45:42;;;;;;;1.85;1.25;;;24.70;99.90;;;;;;5022731;28;20026;-71
2022/06/04 12:48:38;;;;;;;2.45;1.30;;;24.90;99.90;;;;;;5023665;28;20034;-72
2022/06/04 12:51:15;;;;;;;1.88;1.20;;;25.40;99.90;;;;;;5024138;28;20030;-73
2022/06/04 12:53:53;;;;;;;2.70;1.48;;;25.90;99.90;;;;;;5023949;28;20042;-72
2022/06/04 12:56:24;;;;;;;1.33;1.10;;;26.20;99.90;;;;;;5023498;28;20464;-73
2022/06/04 12:58:53;;;;;;;2.55;1.52;;;26.30;99.90;;;;;;5019318;28;20546;-74
2022/06/04 13:01:18;;;;;;;3.35;1.65;;;26.40;99.90;;;;;;5022398;28;20072;-72
2022/06/04 13:03:48;;;;;;;5.63;1.60;;;26.40;99.90;;;;;;5023078;28;20474;-72
2022/06/04 13:06:32;;;;;;;2.55;1.67;;;26.60;99.90;;;;;;5023026;28;20018;-71
2022/06/04 13:09:13;;;;;;;2.20;1.33;;;26.60;99.90;;;;;;5019388;28;20018;-74
2022/06/04 13:12:13;;;;;;;2.47;1.48;;;26.60;99.90;;;;;;5022862;28;20037;-72
2022/06/04 13:14:50;;;;;;;3.92;1.17;;;26.70;99.90;;;;;;5005216;28;20029;-70
2022/06/04 13:17:18;;;;;;;4.10;1.73;;;26.90;99.90;;;;;;5023175;28;20061;-72
2022/06/04 13:19:52;;;;;;;3.17;1.63;;;27.10;99.90;;;;;;5022614;28;20033;-74
2022/06/04 13:22:32;;;;;;;3.35;1.73;;;27.10;99.90;;;;;;5021337;28;20046;-74
2022/06/04 13:25:00;;;;;;;2.67;1.30;;;27.20;99.90;;;;;;5021801;28;20045;-73
2022/06/04 13:27:59;;;;;;;3.95;1.45;;;27.20;99.90;;;;;;5021547;28;20032;-71
2022/06/04 13:30:30;;;;;;;2.90;1.30;;;27.20;99.90;;;;;;5003872;28;20065;-72
2022/06/04 13:33:13;;;;;;;6.15;1.95;;;27.20;99.90;;;;;;5020951;28;20055;-73